CYBX

Lourdes de Blanc Sablon Airport

Lourdes-De-Blanc-Sablon, Quebec, Canada
METAR CYBX 181600Z 07019G25KT 15SM -RA OVC024 04/02 A2939 RMK SC8 SLP955
Observed Flight Rules
Oct-18 @ 16:00 UTC (57 minutes ago) Marginal Visual Flight Rules
Wind Visibility Clouds Conditions
70° at 19 knots
 Gusting to 25 knots
15 miles
  • Overcast at 2,400' AGL
  • Light Rain
Temperatures Readings
Current 4°C / 39°F
Dewpoint 2°C / 36°F
Humidity 87%
Altimeter 29.39" Hg
Pressure 995.5 hPa
Elevation 35
METAR CYBX 181600Z 07019G25KT 15SM -RA OVC024 04/02 A2939 RMK SC8 SLP955
Observed Flight Rules
Oct-18 @ 16:00 UTC
(57 minutes ago)
MVFR
Wind Visibility
70° at 19 knots
 Gusting to 25 knots
15 miles
Clouds
  • Overcast at 2,400' AGL
Conditions
  • Light Rain
Temperature Dewpoint
4°C / 39°F 2°C / 36°F
Humidity Altimeter Pressure
87% 29.39" Hg 995.5 hPa